Time;durP1;ratioP1;P1;durP2;ratioP2;P2;SDS_P1;SDS_P2;PMS_P1;PMS_P2;Temp;Humidity;BMP_temperature;BMP_pressure;BME280_temperature;BME280_humidity;BME280_pressure;Samples;Min_cycle;Max_cycle;Signal;HPM_P1;HPM_P2
2023/03/15 00:02:51;;;;;;;7.18;2.63;;;;;;;;;;10371341;28;20049;-59
2023/03/15 00:07:52;;;;;;;7.22;2.60;;;;;;;;;;10371915;28;20461;-60
2023/03/15 00:12:53;;;;;;;5.90;2.30;;;;;;;;;;10371590;28;20042;-60
2023/03/15 00:17:54;;;;;;;4.40;1.98;;;;;;;;;;10371690;28;20105;-60
2023/03/15 00:22:54;;;;;;;4.18;2.20;;;;;;;;;;10371547;28;20037;-60
2023/03/15 00:27:55;;;;;;;5.13;2.15;;;;;;;;;;10371546;28;20033;-60
2023/03/15 00:32:56;;;;;;;6.25;2.35;;;;;;;;;;10371033;28;20371;-59
2023/03/15 00:37:56;;;;;;;5.63;2.30;;;;;;;;;;10370826;28;20026;-59
2023/03/15 00:42:57;;;;;;;5.13;2.47;;;;;;;;;;10370671;28;20034;-59
2023/03/15 00:47:58;;;;;;;4.07;2.20;;;;;;;;;;10370367;28;20092;-59
2023/03/15 00:52:58;;;;;;;2.75;1.80;;;;;;;;;;10370803;28;20042;-59
2023/03/15 00:57:59;;;;;;;8.15;2.10;;;;;;;;;;10370182;28;20429;-59
2023/03/15 01:02:59;;;;;;;3.22;2.05;;;;;;;;;;10369184;28;20033;-60
2023/03/15 01:08:01;;;;;;;9.98;2.58;;;;;;;;;;10369848;28;20034;-60
2023/03/15 01:13:02;;;;;;;3.25;1.92;;;;;;;;;;10368168;28;20438;-59
2023/03/15 01:18:03;;;;;;;5.63;1.95;;;;;;;;;;10369774;28;20022;-59
2023/03/15 01:23:04;;;;;;;6.85;2.20;;;;;;;;;;10369113;28;20034;-60
2023/03/15 01:28:05;;;;;;;3.88;2.50;;;;;;;;;;10369747;28;20033;-60
2023/03/15 01:33:06;;;;;;;12.43;2.47;;;;;;;;;;10368832;28;20029;-60
2023/03/15 01:38:07;;;;;;;6.28;2.50;;;;;;;;;;10369195;28;20026;-59
2023/03/15 01:43:07;;;;;;;6.82;2.17;;;;;;;;;;10368552;28;20437;-59
2023/03/15 01:48:08;;;;;;;3.20;2.03;;;;;;;;;;10368165;28;20068;-59
2023/03/15 01:53:09;;;;;;;3.50;1.95;;;;;;;;;;10368050;28;20466;-59
2023/03/15 01:58:10;;;;;;;2.58;1.83;;;;;;;;;;10367290;28;20381;-59
2023/03/15 02:03:17;;;;;;;3.15;2.15;;;;;;;;;;10366708;28;20037;-60
2023/03/15 02:08:20;;;;;;;4.60;2.00;;;;;;;;;;10366734;28;20034;-60
2023/03/15 02:13:23;;;;;;;3.60;1.90;;;;;;;;;;10367643;28;20017;-60
2023/03/15 02:18:24;;;;;;;6.03;2.10;;;;;;;;;;10365487;28;20037;-60
2023/03/15 02:23:26;;;;;;;3.50;2.25;;;;;;;;;;10367409;28;20030;-60
2023/03/15 02:28:27;;;;;;;3.40;2.17;;;;;;;;;;10366261;28;20022;-60
2023/03/15 02:33:48;;;;;;;4.07;1.95;;;;;;;;;;10366313;28;20022;-60
2023/03/15 02:38:50;;;;;;;5.07;2.25;;;;;;;;;;10366821;28;20034;-60
2023/03/15 02:43:57;;;;;;;4.45;2.03;;;;;;;;;;10366984;28;20052;-59
2023/03/15 02:48:59;;;;;;;5.20;2.40;;;;;;;;;;10365901;28;20041;-60
2023/03/15 02:54:00;;;;;;;6.18;2.00;;;;;;;;;;10367364;28;20087;-59
2023/03/15 02:59:00;;;;;;;4.15;1.98;;;;;;;;;;10367085;28;20089;-59
2023/03/15 03:04:01;;;;;;;3.75;2.10;;;;;;;;;;10366358;28;20025;-59
2023/03/15 03:09:03;;;;;;;2.50;1.90;;;;;;;;;;10366825;28;20508;-59
2023/03/15 03:14:03;;;;;;;2.75;2.17;;;;;;;;;;10366339;28;20026;-59
2023/03/15 03:19:04;;;;;;;1.65;1.45;;;;;;;;;;10366901;28;20029;-59
2023/03/15 03:24:05;;;;;;;5.13;2.03;;;;;;;;;;10366270;28;20398;-58
2023/03/15 03:29:06;;;;;;;3.53;2.15;;;;;;;;;;10371439;28;20026;-59
2023/03/15 03:34:08;;;;;;;3.67;1.80;;;;;;;;;;10373837;28;20037;-59
2023/03/15 03:39:09;;;;;;;5.03;2.10;;;;;;;;;;10373692;28;20064;-59
2023/03/15 03:44:10;;;;;;;2.40;1.60;;;;;;;;;;10372717;28;20030;-59
2023/03/15 03:49:10;;;;;;;4.40;1.80;;;;;;;;;;10372887;28;20022;-60
2023/03/15 03:54:11;;;;;;;3.10;2.00;;;;;;;;;;10372942;28;20092;-59
2023/03/15 03:59:11;;;;;;;4.85;2.13;;;;;;;;;;10372407;28;20401;-59
2023/03/15 04:04:12;;;;;;;3.13;1.70;;;;;;;;;;10371866;28;20026;-60
2023/03/15 04:09:15;;;;;;;3.22;1.95;;;;;;;;;;10372275;28;20030;-60
2023/03/15 04:14:15;;;;;;;2.75;1.92;;;;;;;;;;10372678;28;20410;-59
2023/03/15 04:19:16;;;;;;;2.00;1.80;;;;;;;;;;10371655;28;20030;-59
2023/03/15 04:24:16;;;;;;;2.53;1.67;;;;;;;;;;10371446;28;20057;-60
2023/03/15 04:29:17;;;;;;;2.47;1.60;;;;;;;;;;10371703;28;20029;-59
2023/03/15 04:34:18;;;;;;;2.15;1.70;;;;;;;;;;10370981;28;20021;-60
2023/03/15 04:39:18;;;;;;;2.88;1.70;;;;;;;;;;10369926;28;20053;-60
2023/03/15 04:44:19;;;;;;;2.85;1.85;;;;;;;;;;10370425;28;20354;-60
2023/03/15 04:49:19;;;;;;;2.83;2.00;;;;;;;;;;10370687;28;20095;-59
2023/03/15 04:54:20;;;;;;;2.15;1.58;;;;;;;;;;10370346;28;20025;-60
2023/03/15 04:59:20;;;;;;;2.30;1.92;;;;;;;;;;10370262;28;20026;-60
2023/03/15 05:04:21;;;;;;;1.88;1.58;;;;;;;;;;10369766;28;20049;-60
2023/03/15 05:09:22;;;;;;;2.38;1.88;;;;;;;;;;10369640;28;20041;-60
2023/03/15 05:14:23;;;;;;;3.50;2.25;;;;;;;;;;10369387;28;20025;-60
2023/03/15 05:19:24;;;;;;;2.28;1.85;;;;;;;;;;10369577;28;20034;-59
2023/03/15 05:24:25;;;;;;;2.78;1.88;;;;;;;;;;10369609;28;20103;-60
2023/03/15 05:29:25;;;;;;;3.35;1.90;;;;;;;;;;10369275;28;20080;-60
2023/03/15 05:34:26;;;;;;;3.78;2.00;;;;;;;;;;10369458;28;20033;-60
2023/03/15 05:39:27;;;;;;;3.67;1.50;;;;;;;;;;10368605;28;20029;-59
2023/03/15 05:44:27;;;;;;;2.42;1.90;;;;;;;;;;10368247;28;20057;-59
2023/03/15 05:49:28;;;;;;;1.85;1.70;;;;;;;;;;10368207;28;20033;-60
2023/03/15 05:54:28;;;;;;;2.28;1.70;;;;;;;;;;10368152;28;20026;-59
2023/03/15 05:59:29;;;;;;;2.42;1.70;;;;;;;;;;10368136;28;20033;-59
2023/03/15 06:04:30;;;;;;;3.72;1.92;;;;;;;;;;10368776;28;20036;-62
2023/03/15 06:09:30;;;;;;;2.17;1.70;;;;;;;;;;10368326;28;20453;-60
2023/03/15 06:14:31;;;;;;;4.15;1.65;;;;;;;;;;10367440;28;20429;-59
2023/03/15 06:19:31;;;;;;;1.52;1.40;;;;;;;;;;10366974;28;20030;-59
2023/03/15 06:24:32;;;;;;;2.05;1.60;;;;;;;;;;10367706;28;20033;-59
2023/03/15 06:29:33;;;;;;;1.73;1.63;;;;;;;;;;10367168;28;20067;-59
2023/03/15 06:34:33;;;;;;;6.25;2.10;;;;;;;;;;10366626;28;20030;-59
2023/03/15 06:39:34;;;;;;;5.13;2.30;;;;;;;;;;10365730;28;20022;-60
2023/03/15 06:44:34;;;;;;;5.55;2.30;;;;;;;;;;10366755;28;20049;-60
2023/03/15 06:49:36;;;;;;;5.95;2.47;;;;;;;;;;10365579;28;20037;-60
2023/03/15 06:54:37;;;;;;;8.02;2.03;;;;;;;;;;10366935;28;20033;-60
2023/03/15 06:59:37;;;;;;;11.10;2.30;;;;;;;;;;10366725;28;20026;-60
2023/03/15 07:04:38;;;;;;;10.50;3.13;;;;;;;;;;10371304;28;20482;-58
2023/03/15 07:09:39;;;;;;;9.25;2.72;;;;;;;;;;10372707;28;20037;-59
2023/03/15 07:14:40;;;;;;;15.55;2.70;;;;;;;;;;10373037;28;20050;-59
2023/03/15 07:19:40;;;;;;;12.50;2.67;;;;;;;;;;10373688;28;20100;-59
2023/03/15 07:24:41;;;;;;;11.13;2.95;;;;;;;;;;10373476;28;20381;-59
2023/03/15 07:29:41;;;;;;;3.53;2.50;;;;;;;;;;10373148;28;20030;-59
2023/03/15 07:34:42;;;;;;;15.13;2.88;;;;;;;;;;10373232;28;20108;-59
2023/03/15 07:39:43;;;;;;;7.30;3.08;;;;;;;;;;10373100;28;20048;-59
2023/03/15 07:44:43;;;;;;;5.55;2.75;;;;;;;;;;10372953;28;20046;-59
2023/03/15 07:49:44;;;;;;;6.90;2.83;;;;;;;;;;10372577;28;20480;-60
2023/03/15 07:54:46;;;;;;;11.20;2.70;;;;;;;;;;10372455;28;20425;-59
2023/03/15 07:59:46;;;;;;;9.60;3.13;;;;;;;;;;10370581;28;20037;-59
2023/03/15 08:04:49;;;;;;;8.65;2.60;;;;;;;;;;10371528;28;20428;-59
2023/03/15 08:09:50;;;;;;;12.00;3.00;;;;;;;;;;10372262;28;20029;-59
2023/03/15 08:14:51;;;;;;;11.55;3.10;;;;;;;;;;10372201;28;20026;-59
2023/03/15 08:19:52;;;;;;;7.53;2.70;;;;;;;;;;10371775;28;20030;-59
2023/03/15 08:24:52;;;;;;;6.68;2.92;;;;;;;;;;10371965;28;20030;-59
2023/03/15 08:29:53;;;;;;;6.63;3.30;;;;;;;;;;10372227;28;20100;-59
2023/03/15 08:34:54;;;;;;;10.85;4.25;;;;;;;;;;10371089;28;20386;-59
2023/03/15 08:39:56;;;;;;;5.22;2.42;;;;;;;;;;10370849;28;20106;-59
2023/03/15 08:44:58;;;;;;;4.03;2.53;;;;;;;;;;10370657;28;20508;-59
2023/03/15 08:49:58;;;;;;;8.98;2.55;;;;;;;;;;10371238;28;20034;-59
2023/03/15 08:55:00;;;;;;;4.20;2.83;;;;;;;;;;10370481;28;20087;-60
2023/03/15 09:00:07;;;;;;;9.75;2.55;;;;;;;;;;10370409;28;20044;-59
2023/03/15 09:05:10;;;;;;;5.45;2.88;;;;;;;;;;10370639;28;20029;-59
2023/03/15 09:10:14;;;;;;;5.57;2.70;;;;;;;;;;10369823;28;20032;-59
2023/03/15 09:15:14;;;;;;;6.95;2.67;;;;;;;;;;10370266;28;20038;-59
2023/03/15 09:20:17;;;;;;;4.10;2.40;;;;;;;;;;10370088;28;20085;-59
2023/03/15 09:25:19;;;;;;;6.38;2.85;;;;;;;;;;10369091;28;20110;-59
2023/03/15 09:30:20;;;;;;;5.15;2.85;;;;;;;;;;10369501;28;20452;-61
2023/03/15 09:35:21;;;;;;;6.13;2.65;;;;;;;;;;10369660;28;20022;-60
2023/03/15 09:40:25;;;;;;;5.82;2.50;;;;;;;;;;10369087;28;20389;-60
2023/03/15 09:46:10;;;;;;;6.05;2.30;;;;;;;;;;10367748;28;20042;-60
2023/03/15 09:51:29;;;;;;;6.65;2.83;;;;;;;;;;10355569;28;20290;-60
2023/03/15 09:56:44;;;;;;;4.70;2.33;;;;;;;;;;10367771;28;20030;-60
2023/03/15 10:01:47;;;;;;;8.25;2.20;;;;;;;;;;10366873;28;20038;-60
2023/03/15 10:06:54;;;;;;;10.80;2.53;;;;;;;;;;10368436;28;20018;-60
2023/03/15 10:12:12;;;;;;;4.63;2.20;;;;;;;;;;10367194;28;20034;-60
2023/03/15 10:17:35;;;;;;;3.70;2.15;;;;;;;;;;10368603;28;20343;-60
2023/03/15 10:23:10;;;;;;;4.03;2.10;;;;;;;;;;10366797;28;20473;-60
2023/03/15 10:28:32;;;;;;;3.83;2.15;;;;;;;;;;10364611;28;20513;-60
2023/03/15 10:33:36;;;;;;;2.95;2.10;;;;;;;;;;10367755;28;20366;-60
2023/03/15 10:38:37;;;;;;;5.05;2.10;;;;;;;;;;10371036;28;20385;-60
2023/03/15 10:43:38;;;;;;;1.80;1.60;;;;;;;;;;10375754;28;20030;-60
2023/03/15 10:48:51;;;;;;;2.60;1.77;;;;;;;;;;10372709;28;20054;-60
2023/03/15 10:54:03;;;;;;;4.45;1.70;;;;;;;;;;10372426;28;20196;-60
2023/03/15 10:59:23;;;;;;;2.28;1.70;;;;;;;;;;10372184;28;20276;-60
2023/03/15 11:04:29;;;;;;;3.17;2.00;;;;;;;;;;10371819;28;20456;-60
2023/03/15 11:09:51;;;;;;;2.35;1.77;;;;;;;;;;10371980;28;20052;-60
2023/03/15 11:15:12;;;;;;;2.17;1.88;;;;;;;;;;10370454;28;20113;-60
2023/03/15 11:20:42;;;;;;;2.22;1.80;;;;;;;;;;10372261;28;20034;-60
2023/03/15 11:25:43;;;;;;;2.20;1.48;;;;;;;;;;10366209;28;20038;-60
2023/03/15 11:30:46;;;;;;;2.28;1.70;;;;;;;;;;10370448;28;20469;-60
2023/03/15 11:35:47;;;;;;;1.98;1.55;;;;;;;;;;10370109;28;20026;-60
2023/03/15 11:40:55;;;;;;;2.50;1.77;;;;;;;;;;10370965;28;20052;-60
2023/03/15 11:46:15;;;;;;;1.85;1.63;;;;;;;;;;10332412;28;1110589;-61
2023/03/15 11:51:16;;;;;;;2.20;1.50;;;;;;;;;;10372800;28;20073;-60
2023/03/15 11:56:43;;;;;;;1.80;1.55;;;;;;;;;;10373332;28;20492;-61
2023/03/15 12:02:09;;;;;;;3.25;1.60;;;;;;;;;;10372221;28;20029;-60
2023/03/15 12:07:29;;;;;;;1.98;1.52;;;;;;;;;;10364847;28;20054;-60
2023/03/15 12:12:30;;;;;;;2.60;1.90;;;;;;;;;;10372371;28;20496;-60
2023/03/15 12:17:33;;;;;;;1.95;1.50;;;;;;;;;;10372413;28;20095;-60
2023/03/15 12:22:35;;;;;;;1.55;1.40;;;;;;;;;;10371717;28;20041;-60
2023/03/15 12:27:38;;;;;;;2.00;1.60;;;;;;;;;;10370846;28;20026;-60
2023/03/15 12:32:48;;;;;;;3.83;1.50;;;;;;;;;;10371932;28;20026;-60
2023/03/15 12:37:52;;;;;;;1.40;1.30;;;;;;;;;;10369528;28;20038;-60
2023/03/15 12:42:53;;;;;;;2.33;1.40;;;;;;;;;;10369188;28;20030;-60
2023/03/15 12:47:56;;;;;;;4.82;1.40;;;;;;;;;;10370477;28;20426;-60
2023/03/15 12:53:00;;;;;;;1.85;1.50;;;;;;;;;;10370590;28;20396;-60
2023/03/15 12:58:03;;;;;;;1.42;1.17;;;;;;;;;;10369075;28;20041;-60
2023/03/15 13:03:17;;;;;;;2.05;1.40;;;;;;;;;;10369569;28;20466;-60
2023/03/15 13:08:35;;;;;;;2.08;1.38;;;;;;;;;;10369481;28;20033;-60
2023/03/15 13:13:54;;;;;;;2.85;1.30;;;;;;;;;;10370286;28;20061;-60
2023/03/15 13:19:15;;;;;;;2.15;1.52;;;;;;;;;;10368812;28;20025;-59
2023/03/15 13:24:28;;;;;;;1.85;1.60;;;;;;;;;;10368894;28;20030;-60
2023/03/15 13:29:31;;;;;;;2.47;1.40;;;;;;;;;;10368735;28;20084;-60
2023/03/15 13:34:33;;;;;;;2.03;1.38;;;;;;;;;;10368999;28;20026;-60
2023/03/15 13:39:34;;;;;;;1.70;1.23;;;;;;;;;;10368899;28;20033;-60
2023/03/15 13:44:34;;;;;;;3.40;1.25;;;;;;;;;;10367943;28;20042;-60
2023/03/15 13:49:35;;;;;;;3.65;1.83;;;;;;;;;;10368827;28;20025;-60
2023/03/15 13:54:36;;;;;;;1.50;1.35;;;;;;;;;;10368761;28;20022;-60
2023/03/15 13:59:45;;;;;;;2.90;1.50;;;;;;;;;;10367810;28;20026;-60
2023/03/15 14:04:56;;;;;;;2.15;1.38;;;;;;;;;;10369067;28;20026;-60
2023/03/15 14:10:32;;;;;;;2.63;1.30;;;;;;;;;;10366914;28;20117;-60
2023/03/15 14:15:43;;;;;;;2.22;1.35;;;;;;;;;;10368367;28;20033;-60
2023/03/15 14:20:52;;;;;;;2.00;1.42;;;;;;;;;;10367601;28;20026;-60
2023/03/15 14:26:21;;;;;;;1.52;1.30;;;;;;;;;;10367793;28;20051;-60
2023/03/15 14:31:26;;;;;;;2.38;1.20;;;;;;;;;;10365588;28;20050;-60
2023/03/15 14:36:39;;;;;;;1.77;1.20;;;;;;;;;;10368220;28;20026;-60
2023/03/15 14:41:40;;;;;;;2.55;1.42;;;;;;;;;;10367502;28;20042;-60
2023/03/15 14:46:40;;;;;;;2.33;1.55;;;;;;;;;;10367419;28;20421;-60
2023/03/15 14:51:41;;;;;;;2.03;1.13;;;;;;;;;;10367853;28;20026;-60
2023/03/15 14:56:42;;;;;;;3.58;1.38;;;;;;;;;;10367391;28;20030;-60
2023/03/15 15:01:49;;;;;;;2.40;1.25;;;;;;;;;;10367087;28;20052;-60
2023/03/15 15:06:50;;;;;;;1.80;1.17;;;;;;;;;;10366504;28;20026;-60
2023/03/15 15:11:51;;;;;;;3.17;1.30;;;;;;;;;;10368039;28;20401;-60
2023/03/15 15:16:52;;;;;;;4.80;1.63;;;;;;;;;;10367106;28;20033;-60
2023/03/15 15:21:53;;;;;;;2.10;1.30;;;;;;;;;;10366793;28;20030;-60
2023/03/15 15:26:53;;;;;;;1.95;1.40;;;;;;;;;;10374677;28;20392;-60
2023/03/15 15:31:54;;;;;;;2.97;1.40;;;;;;;;;;10373323;28;20430;-60
2023/03/15 15:36:55;;;;;;;5.97;1.70;;;;;;;;;;10372533;28;20026;-60
2023/03/15 15:41:56;;;;;;;2.50;1.45;;;;;;;;;;10373982;28;20040;-60
2023/03/15 15:46:57;;;;;;;1.98;1.40;;;;;;;;;;10373441;28;20498;-60
2023/03/15 15:51:57;;;;;;;5.15;1.67;;;;;;;;;;10373240;28;20093;-59
2023/03/15 15:56:59;;;;;;;3.65;1.35;;;;;;;;;;10371443;28;20030;-59
2023/03/15 16:02:00;;;;;;;1.52;1.35;;;;;;;;;;10372181;28;20036;-60
2023/03/15 16:07:06;;;;;;;4.40;1.48;;;;;;;;;;10373324;28;20036;-60
2023/03/15 16:12:12;;;;;;;3.50;1.42;;;;;;;;;;10371850;28;20445;-60
2023/03/15 16:17:22;;;;;;;4.38;1.40;;;;;;;;;;10371205;28;20061;-60
2023/03/15 16:22:25;;;;;;;2.55;1.60;;;;;;;;;;10371735;28;20428;-60
2023/03/15 16:27:27;;;;;;;1.73;1.33;;;;;;;;;;10372282;28;20038;-60
2023/03/15 16:32:28;;;;;;;1.65;1.55;;;;;;;;;;10371342;28;20466;-60
2023/03/15 16:37:31;;;;;;;2.35;1.50;;;;;;;;;;10370114;28;20034;-60
2023/03/15 16:42:31;;;;;;;3.80;1.70;;;;;;;;;;10368800;28;20041;-59
2023/03/15 16:47:32;;;;;;;1.67;1.30;;;;;;;;;;10370773;28;20053;-60
2023/03/15 16:52:33;;;;;;;4.13;1.70;;;;;;;;;;10369819;28;20026;-60
2023/03/15 16:57:33;;;;;;;2.78;1.52;;;;;;;;;;10369699;28;20034;-60
2023/03/15 17:02:34;;;;;;;6.53;1.83;;;;;;;;;;10368838;28;20380;-59
2023/03/15 17:07:38;;;;;;;1.90;1.38;;;;;;;;;;10370068;28;20041;-61
2023/03/15 17:12:39;;;;;;;2.85;1.70;;;;;;;;;;10369287;28;20018;-60
2023/03/15 17:17:40;;;;;;;3.58;1.58;;;;;;;;;;10369395;28;20030;-59
2023/03/15 17:22:41;;;;;;;3.33;1.52;;;;;;;;;;10367828;28;20026;-60
2023/03/15 17:27:44;;;;;;;4.72;1.67;;;;;;;;;;10365952;28;20045;-59
2023/03/15 17:32:45;;;;;;;6.18;1.40;;;;;;;;;;10367463;28;20030;-60
2023/03/15 17:37:46;;;;;;;2.40;1.17;;;;;;;;;;10368889;28;20026;-60
2023/03/15 17:42:48;;;;;;;6.45;1.60;;;;;;;;;;10368777;28;20033;-60
2023/03/15 17:47:50;;;;;;;5.78;1.55;;;;;;;;;;10366629;28;20494;-60
2023/03/15 17:53:03;;;;;;;2.67;1.50;;;;;;;;;;10367370;28;20057;-59
2023/03/15 17:58:18;;;;;;;2.42;1.42;;;;;;;;;;10363724;28;20022;-59
2023/03/15 18:03:19;;;;;;;3.78;1.40;;;;;;;;;;10364999;28;20061;-59
2023/03/15 18:08:20;;;;;;;4.10;1.60;;;;;;;;;;10366879;28;20512;-59
2023/03/15 18:13:22;;;;;;;3.65;1.50;;;;;;;;;;10366355;28;20033;-59
2023/03/15 18:18:22;;;;;;;4.22;1.48;;;;;;;;;;10366758;28;20030;-60
2023/03/15 18:23:23;;;;;;;3.33;1.63;;;;;;;;;;10366087;28;20026;-60
2023/03/15 18:28:23;;;;;;;2.92;1.63;;;;;;;;;;10365988;28;20034;-60
2023/03/15 18:33:25;;;;;;;3.30;1.50;;;;;;;;;;10365201;28;20115;-59
2023/03/15 18:38:25;;;;;;;5.07;1.60;;;;;;;;;;10365730;28;20493;-59
2023/03/15 18:43:26;;;;;;;1.75;1.30;;;;;;;;;;10365942;28;20030;-59
2023/03/15 18:48:27;;;;;;;2.47;1.52;;;;;;;;;;10365815;28;20041;-59
2023/03/15 18:53:28;;;;;;;1.40;1.30;;;;;;;;;;10366719;28;20060;-60
2023/03/15 18:58:30;;;;;;;9.93;2.00;;;;;;;;;;10368957;28;20022;-59
2023/03/15 19:03:31;;;;;;;9.55;1.88;;;;;;;;;;10374244;28;20041;-59
2023/03/15 19:08:33;;;;;;;10.45;2.03;;;;;;;;;;10374456;28;20481;-59
2023/03/15 19:13:34;;;;;;;8.63;2.00;;;;;;;;;;10374713;28;20026;-59
2023/03/15 19:18:34;;;;;;;4.28;1.45;;;;;;;;;;10374832;28;20028;-60
2023/03/15 19:23:35;;;;;;;6.05;1.65;;;;;;;;;;10373789;28;20030;-60
2023/03/15 19:28:36;;;;;;;18.05;2.05;;;;;;;;;;10373966;28;20029;-60
2023/03/15 19:33:37;;;;;;;13.32;2.90;;;;;;;;;;10373588;28;20026;-60
2023/03/15 19:38:38;;;;;;;10.55;2.30;;;;;;;;;;10374255;28;20057;-60
2023/03/15 19:43:42;;;;;;;13.77;2.30;;;;;;;;;;10374289;28;20038;-59
2023/03/15 19:48:42;;;;;;;8.70;2.00;;;;;;;;;;10372946;28;20049;-59
2023/03/15 19:53:43;;;;;;;7.57;1.88;;;;;;;;;;10373392;28;20034;-59
2023/03/15 19:58:43;;;;;;;7.15;2.75;;;;;;;;;;10372936;28;20497;-59
2023/03/15 20:03:44;;;;;;;8.02;1.90;;;;;;;;;;10371992;28;20367;-59
2023/03/15 20:08:44;;;;;;;6.13;1.80;;;;;;;;;;10371925;28;20261;-59
2023/03/15 20:13:45;;;;;;;7.47;1.60;;;;;;;;;;10370704;28;20029;-60
2023/03/15 20:18:49;;;;;;;8.60;2.00;;;;;;;;;;10370944;28;20030;-59
2023/03/15 20:23:50;;;;;;;6.47;2.03;;;;;;;;;;10370858;28;20034;-59
2023/03/15 20:28:51;;;;;;;3.85;1.98;;;;;;;;;;10370828;28;20057;-60
2023/03/15 20:33:51;;;;;;;12.15;2.90;;;;;;;;;;10370907;28;20245;-60
2023/03/15 20:38:52;;;;;;;24.58;2.95;;;;;;;;;;10371013;28;20022;-60
2023/03/15 20:43:53;;;;;;;20.27;3.75;;;;;;;;;;10370596;28;20108;-61
2023/03/15 20:48:53;;;;;;;23.83;3.08;;;;;;;;;;10370528;28;20112;-61
2023/03/15 20:53:54;;;;;;;7.40;2.53;;;;;;;;;;10371329;28;20034;-61
2023/03/15 20:58:54;;;;;;;10.25;2.80;;;;;;;;;;10371088;28;20052;-61
2023/03/15 21:03:56;;;;;;;15.02;3.08;;;;;;;;;;10370883;28;20063;-61
2023/03/15 21:08:56;;;;;;;19.88;3.15;;;;;;;;;;10370668;28;20104;-60
2023/03/15 21:13:57;;;;;;;9.88;2.55;;;;;;;;;;10370027;28;20421;-61
2023/03/15 21:19:00;;;;;;;8.70;2.50;;;;;;;;;;10370103;28;20408;-61
2023/03/15 21:24:01;;;;;;;9.65;2.88;;;;;;;;;;10369628;28;20045;-60
2023/03/15 21:29:01;;;;;;;8.32;2.60;;;;;;;;;;10369079;28;20405;-61
2023/03/15 21:34:03;;;;;;;7.65;2.38;;;;;;;;;;10369189;28;20025;-60
2023/03/15 21:39:04;;;;;;;4.90;2.45;;;;;;;;;;10370121;28;20026;-60
2023/03/15 21:44:05;;;;;;;9.23;2.95;;;;;;;;;;10369204;28;20370;-60
2023/03/15 21:49:06;;;;;;;6.28;2.70;;;;;;;;;;10368873;28;20034;-60
2023/03/15 21:54:07;;;;;;;10.40;2.47;;;;;;;;;;10368059;28;20109;-60
2023/03/15 21:59:09;;;;;;;9.02;2.58;;;;;;;;;;10368980;28;20037;-60
2023/03/15 22:04:10;;;;;;;9.02;3.13;;;;;;;;;;10369409;28;20647;-60
2023/03/15 22:09:10;;;;;;;4.22;2.22;;;;;;;;;;10368078;28;20087;-60
2023/03/15 22:14:11;;;;;;;10.10;2.83;;;;;;;;;;10367399;28;20037;-60
2023/03/15 22:19:11;;;;;;;10.63;2.72;;;;;;;;;;10367241;28;20029;-60
2023/03/15 22:24:12;;;;;;;9.32;2.75;;;;;;;;;;10368074;28;20028;-60
2023/03/15 22:29:12;;;;;;;9.15;2.78;;;;;;;;;;10365261;28;20022;-60
2023/03/15 22:34:13;;;;;;;8.43;3.10;;;;;;;;;;10370660;28;20025;-59
2023/03/15 22:39:14;;;;;;;11.00;2.83;;;;;;;;;;10371404;28;20034;-59
2023/03/15 22:44:21;;;;;;;12.40;2.97;;;;;;;;;;10369548;28;20025;-60
2023/03/15 22:49:22;;;;;;;7.73;2.63;;;;;;;;;;10374651;28;20108;-60
2023/03/15 22:54:23;;;;;;;13.15;2.60;;;;;;;;;;10375194;28;20026;-60
2023/03/15 22:59:27;;;;;;;9.30;2.40;;;;;;;;;;10372767;28;20026;-59
2023/03/15 23:04:28;;;;;;;11.73;2.78;;;;;;;;;;10372217;28;20026;-60
2023/03/15 23:09:29;;;;;;;4.32;2.22;;;;;;;;;;10373682;28;20080;-60
2023/03/15 23:14:29;;;;;;;3.20;2.13;;;;;;;;;;10374479;28;20053;-60
2023/03/15 23:19:32;;;;;;;5.75;2.45;;;;;;;;;;10374030;28;20034;-59
2023/03/15 23:24:33;;;;;;;4.43;2.50;;;;;;;;;;10374339;28;20029;-59
2023/03/15 23:29:34;;;;;;;9.68;2.83;;;;;;;;;;10374180;28;20061;-59
2023/03/15 23:34:41;;;;;;;6.97;2.35;;;;;;;;;;10374221;28;20435;-59
2023/03/15 23:39:42;;;;;;;9.98;2.63;;;;;;;;;;10373640;28;20484;-60
2023/03/15 23:44:42;;;;;;;8.75;2.40;;;;;;;;;;10372643;28;20057;-59
2023/03/15 23:49:43;;;;;;;4.32;1.90;;;;;;;;;;10373767;28;20026;-60
2023/03/15 23:54:44;;;;;;;4.53;2.33;;;;;;;;;;10373879;28;20026;-59
2023/03/15 23:59:44;;;;;;;3.80;2.10;;;;;;;;;;10373285;28;20038;-59
